createdAt,value
2022-08-07T00:01:43.649Z,4.97
2022-08-07T00:04:04.674Z,5.38
2022-08-07T00:06:33.535Z,5.07
2022-08-07T00:09:16.772Z,5.75
2022-08-07T00:11:54.519Z,5.43
2022-08-07T00:14:25.554Z,5.28
2022-08-07T00:16:58.379Z,6.07
2022-08-07T00:19:25.922Z,5.63
2022-08-07T00:21:55.589Z,5.82
2022-08-07T00:24:24.056Z,6.18
2022-08-07T00:26:58.824Z,6.05
2022-08-07T00:29:32.642Z,6.63
2022-08-07T00:32:00.156Z,6.00
2022-08-07T00:34:27.142Z,6.45
2022-08-07T00:36:56.188Z,6.45
2022-08-07T00:39:22.832Z,6.45
2022-08-07T00:42:04.675Z,5.78
2022-08-07T00:44:33.308Z,5.95
2022-08-07T00:47:00.581Z,6.47
2022-08-07T00:50:21.131Z,5.80
2022-08-07T00:52:14.812Z,7.95
2022-08-07T00:54:46.799Z,6.47
2022-08-07T00:57:21.843Z,5.88
2022-08-07T00:59:49.076Z,7.25
2022-08-07T01:02:28.703Z,6.57
2022-08-07T01:04:58.256Z,6.80
2022-08-07T01:07:27.643Z,7.63
2022-08-07T01:10:07.152Z,6.88
2022-08-07T01:12:38.959Z,7.35
2022-08-07T01:15:06.786Z,7.60
2022-08-07T01:17:40.014Z,6.80
2022-08-07T01:20:16.589Z,7.50
2022-08-07T01:22:46.720Z,8.10
2022-08-07T01:25:53.542Z,7.32
2022-08-07T01:28:06.999Z,6.70
2022-08-07T01:30:39.206Z,6.72
2022-08-07T01:33:05.822Z,6.40
2022-08-07T01:35:53.093Z,6.43
2022-08-07T01:38:24.967Z,5.82
2022-08-07T01:40:58.760Z,5.90
2022-08-07T01:43:26.397Z,6.20
2022-08-07T01:46:02.017Z,6.47
2022-08-07T01:48:30.917Z,6.47
2022-08-07T01:51:24.273Z,7.38
2022-08-07T01:54:12.497Z,7.57
2022-08-07T01:56:39.538Z,8.13
2022-08-07T01:59:09.849Z,7.65
2022-08-07T02:02:00.139Z,7.05
2022-08-07T02:04:39.186Z,7.05
2022-08-07T02:07:24.374Z,6.82
2022-08-07T02:10:04.900Z,7.07
2022-08-07T02:12:37.194Z,7.70
2022-08-07T02:15:06.074Z,7.18
2022-08-07T02:17:34.757Z,7.18
2022-08-07T02:20:09.537Z,7.53
2022-08-07T02:22:44.576Z,7.82
2022-08-07T02:25:18.123Z,7.53
2022-08-07T02:27:51.209Z,8.60
2022-08-07T02:30:19.095Z,8.05
2022-08-07T02:33:00.991Z,7.38
2022-08-07T02:36:30.467Z,8.30
2022-08-07T02:38:28.088Z,8.10
2022-08-07T02:40:58.952Z,8.40
2022-08-07T02:43:27.979Z,9.20
2022-08-07T02:46:01.475Z,9.05
2022-08-07T02:48:29.903Z,8.60
2022-08-07T02:50:57.358Z,8.13
2022-08-07T02:53:38.574Z,8.13
2022-08-07T02:56:12.826Z,8.00
2022-08-07T02:58:47.234Z,8.02
2022-08-07T03:01:18.766Z,8.45
2022-08-07T03:04:03.441Z,9.05
2022-08-07T03:06:34.736Z,8.43
2022-08-07T03:09:07.832Z,9.57
2022-08-07T03:11:38.359Z,8.60
2022-08-07T03:14:06.091Z,8.82
2022-08-07T03:16:33.528Z,9.55
2022-08-07T03:19:00.473Z,9.27
2022-08-07T03:21:27.917Z,10.20
2022-08-07T03:24:21.129Z,9.85
2022-08-07T03:26:51.241Z,9.95
2022-08-07T03:29:28.278Z,9.73
2022-08-07T03:31:55.888Z,9.27
2022-08-07T03:34:27.153Z,9.32
2022-08-07T03:36:54.348Z,9.38
2022-08-07T03:39:46.366Z,10.35
2022-08-07T03:42:09.440Z,10.30
2022-08-07T03:44:36.924Z,11.00
2022-08-07T03:47:13.693Z,8.98
2022-08-07T03:49:47.760Z,9.65
2022-08-07T03:52:22.576Z,9.88
2022-08-07T03:54:54.993Z,10.57
2022-08-07T03:58:34.646Z,10.05
2022-08-07T04:00:13.981Z,10.60
2022-08-07T04:02:43.053Z,10.52
2022-08-07T04:05:14.083Z,10.13
2022-08-07T04:07:47.921Z,9.45
2022-08-07T04:10:18.929Z,10.65
2022-08-07T04:12:47.398Z,10.65
2022-08-07T04:15:15.685Z,10.13
2022-08-07T04:18:57.907Z,10.63
2022-08-07T04:20:30.728Z,12.32
2022-08-07T04:23:01.571Z,10.98
2022-08-07T04:25:29.447Z,9.95
2022-08-07T04:28:00.401Z,10.63
2022-08-07T04:30:43.401Z,10.25
2022-08-07T04:33:14.007Z,10.20
2022-08-07T04:35:50.582Z,10.18
2022-08-07T04:38:18.064Z,10.20
2022-08-07T04:40:52.176Z,10.93
2022-08-07T04:43:21.786Z,11.95
2022-08-07T04:46:34.731Z,11.30
2022-08-07T04:49:28.005Z,10.50
2022-08-07T04:52:19.251Z,11.38
2022-08-07T04:55:14.870Z,10.82
2022-08-07T04:58:31.473Z,10.50
2022-08-07T05:00:53.954Z,11.40
2022-08-07T05:03:59.776Z,12.32
2022-08-07T05:06:19.443Z,12.40
2022-08-07T05:09:09.622Z,9.70
2022-08-07T05:11:57.087Z,9.90
2022-08-07T05:14:55.283Z,9.52
2022-08-07T05:17:52.577Z,8.30
2022-08-07T05:20:09.589Z,7.25
2022-08-07T05:22:37.387Z,6.22
2022-08-07T05:25:08.771Z,6.07
2022-08-07T05:28:02.615Z,5.85
2022-08-07T05:30:32.401Z,5.13
2022-08-07T05:33:02.502Z,5.40
2022-08-07T05:35:33.921Z,5.50
2022-08-07T05:38:09.776Z,5.10
2022-08-07T05:40:37.862Z,5.00
2022-08-07T05:43:18.586Z,5.70
2022-08-07T05:45:47.916Z,5.30
2022-08-07T05:48:15.217Z,5.18
2022-08-07T05:50:43.623Z,4.95
2022-08-07T05:54:12.732Z,5.55
2022-08-07T05:56:01.998Z,5.85
2022-08-07T05:58:36.863Z,5.05
2022-08-07T06:01:05.957Z,5.57
2022-08-07T06:03:56.410Z,4.90
2022-08-07T06:06:23.687Z,5.75
2022-08-07T06:08:57.080Z,5.15
2022-08-07T06:11:24.926Z,5.05
2022-08-07T06:14:11.988Z,5.50
2022-08-07T06:16:38.819Z,5.45
2022-08-07T06:19:06.648Z,5.70
2022-08-07T06:22:16.310Z,5.60
2022-08-07T06:24:46.256Z,5.90
2022-08-07T06:27:06.659Z,5.10
2022-08-07T06:29:34.880Z,5.07
2022-08-07T06:32:05.531Z,5.45
2022-08-07T06:34:32.126Z,5.82
2022-08-07T06:36:59.780Z,4.93
2022-08-07T06:40:16.246Z,5.53
2022-08-07T06:42:19.181Z,4.95
2022-08-07T06:44:50.913Z,4.65
2022-08-07T06:47:18.826Z,4.03
2022-08-07T06:49:51.569Z,3.70
2022-08-07T06:52:31.368Z,4.18
2022-08-07T06:55:31.197Z,3.45
2022-08-07T06:58:04.254Z,3.45
2022-08-07T07:00:36.831Z,3.50
2022-08-07T07:03:08.841Z,3.58
2022-08-07T07:06:02.532Z,3.00
2022-08-07T07:08:29.383Z,3.30
2022-08-07T07:10:57.774Z,3.65
2022-08-07T07:13:56.073Z,3.30
2022-08-07T07:16:22.373Z,3.53
2022-08-07T07:19:11.164Z,3.60
2022-08-07T07:22:11.808Z,4.57
2022-08-07T07:24:39.921Z,3.70
2022-08-07T07:30:09.103Z,3.63
2022-08-07T07:32:34.412Z,3.28
2022-08-07T07:35:03.984Z,3.35
2022-08-07T07:37:47.398Z,3.28
2022-08-07T07:40:20.640Z,3.40
2022-08-07T07:42:55.631Z,3.13
2022-08-07T07:46:37.884Z,3.00
2022-08-07T07:48:24.329Z,2.83
2022-08-07T07:51:08.179Z,3.00
2022-08-07T07:53:51.357Z,2.85
2022-08-07T07:56:30.024Z,2.80
2022-08-07T07:59:01.546Z,3.92
2022-08-07T08:02:03.992Z,3.20
2022-08-07T08:04:25.505Z,2.90
2022-08-07T08:06:55.358Z,3.15
2022-08-07T08:09:29.655Z,2.60
2022-08-07T08:12:05.255Z,2.50
2022-08-07T08:14:34.380Z,2.72
2022-08-07T08:17:56.521Z,2.80
2022-08-07T08:20:22.221Z,2.53
2022-08-07T08:23:08.115Z,2.60
2022-08-07T08:25:56.206Z,2.30
2022-08-07T08:28:37.964Z,2.42
2022-08-07T08:31:13.830Z,1.90
2022-08-07T08:33:49.133Z,2.17
2022-08-07T08:36:29.669Z,1.92
2022-08-07T08:39:01.860Z,1.70
2022-08-07T08:41:57.819Z,2.05
2022-08-07T08:44:29.422Z,2.50
2022-08-07T08:47:07.692Z,1.90
2022-08-07T08:50:17.545Z,2.00
2022-08-07T08:53:22.424Z,1.80
2022-08-07T08:55:58.551Z,1.70
2022-08-07T08:58:47.597Z,1.88
2022-08-07T09:01:20.004Z,1.65
2022-08-07T09:04:13.437Z,1.88
2022-08-07T09:07:13.610Z,1.67
2022-08-07T09:10:20.606Z,1.40
2022-08-07T09:13:11.642Z,1.30
2022-08-07T09:16:30.603Z,1.27
2022-08-07T09:19:03.599Z,1.40
2022-08-07T09:22:09.682Z,1.40
2022-08-07T09:24:59.347Z,1.65
2022-08-07T09:28:01.799Z,1.33
2022-08-07T09:30:57.896Z,1.48
2022-08-07T09:33:57.323Z,1.23
2022-08-07T09:36:43.244Z,1.23
2022-08-07T09:39:54.796Z,1.30
2022-08-07T09:42:50.221Z,1.63
2022-08-07T09:47:52.378Z,1.50
2022-08-07T09:48:50.154Z,1.35
2022-08-07T09:52:15.800Z,1.45
2022-08-07T09:54:40.434Z,1.52
2022-08-07T09:57:21.889Z,1.60
2022-08-07T10:00:14.471Z,1.60
2022-08-07T10:04:03.757Z,2.10
2022-08-07T10:06:17.331Z,1.88
2022-08-07T10:08:51.311Z,1.60
2022-08-07T10:12:01.940Z,1.60
2022-08-07T10:14:37.018Z,1.60
2022-08-07T10:17:19.188Z,2.30
2022-08-07T10:20:32.025Z,2.00
2022-08-07T10:24:06.777Z,1.60
2022-08-07T10:26:38.721Z,1.50
2022-08-07T10:29:16.547Z,1.63
2022-08-07T10:31:58.257Z,1.77
2022-08-07T10:34:37.554Z,1.83
2022-08-07T10:37:26.533Z,1.77
2022-08-07T10:40:20.937Z,1.80
2022-08-07T10:43:03.468Z,1.52
2022-08-07T10:45:44.754Z,1.70
2022-08-07T10:48:20.471Z,1.80
2022-08-07T10:50:50.397Z,1.60
2022-08-07T10:53:44.830Z,2.00
2022-08-07T10:56:32.930Z,1.50
2022-08-07T10:59:37.380Z,1.63
2022-08-07T11:02:27.338Z,1.58
2022-08-07T11:05:35.818Z,1.65
2022-08-07T11:08:39.678Z,1.70
2022-08-07T11:11:10.733Z,1.58
2022-08-07T11:14:44.101Z,1.70
2022-08-07T11:16:34.837Z,1.73
2022-08-07T11:19:10.428Z,2.00
2022-08-07T11:21:42.925Z,1.77
2022-08-07T11:24:45.650Z,1.70
2022-08-07T11:27:16.576Z,1.88
2022-08-07T11:30:18.179Z,1.73
2022-08-07T11:33:02.792Z,1.83
2022-08-07T11:36:00.361Z,1.73
2022-08-07T11:38:33.707Z,1.55
2022-08-07T11:41:18.249Z,1.60
2022-08-07T11:44:19.025Z,1.85
2022-08-07T11:46:53.498Z,1.80
2022-08-07T11:50:30.117Z,1.85
2022-08-07T11:52:57.836Z,1.70
2022-08-07T11:56:25.131Z,1.67
2022-08-07T11:58:50.357Z,1.90
2022-08-07T12:01:59.741Z,2.20
2022-08-07T12:07:27.277Z,1.70
2022-08-07T12:10:05.642Z,1.80
2022-08-07T12:12:41.224Z,1.98
2022-08-07T12:15:46.467Z,1.90
2022-08-07T12:18:47.978Z,1.60
2022-08-07T12:21:55.443Z,1.97
2022-08-07T12:24:37.258Z,1.83
2022-08-07T12:27:16.003Z,1.80
2022-08-07T12:29:51.547Z,1.80
2022-08-07T12:32:31.288Z,1.33
2022-08-07T12:34:58.836Z,1.50
2022-08-07T12:38:09.261Z,1.90
2022-08-07T12:40:46.456Z,1.85
2022-08-07T12:43:11.638Z,2.00
2022-08-07T12:46:26.339Z,2.20
2022-08-07T12:49:10.288Z,2.05
2022-08-07T12:52:23.291Z,1.90
2022-08-07T12:55:17.521Z,1.40
2022-08-07T12:58:00.515Z,2.03
2022-08-07T13:00:52.552Z,2.00
2022-08-07T13:07:01.253Z,1.77
2022-08-07T13:10:20.796Z,1.88
2022-08-07T13:12:54.184Z,1.63
2022-08-07T13:15:29.726Z,1.52
2022-08-07T13:18:10.256Z,1.65
2022-08-07T13:20:59.227Z,1.70
2022-08-07T13:24:01.679Z,1.70
2022-08-07T13:26:35.720Z,1.58
2022-08-07T13:29:26.018Z,1.70
2022-08-07T13:32:31.245Z,1.73
2022-08-07T13:34:54.450Z,1.60
2022-08-07T13:38:06.090Z,1.70
2022-08-07T13:41:00.642Z,2.20
2022-08-07T13:43:27.739Z,1.52
2022-08-07T13:46:12.195Z,1.80
2022-08-07T13:48:58.396Z,1.70
2022-08-07T13:52:22.261Z,1.92
2022-08-07T13:54:16.338Z,1.80
2022-08-07T13:56:52.007Z,1.90
2022-08-07T13:59:25.755Z,1.60
2022-08-07T14:02:03.683Z,1.83
2022-08-07T14:04:36.374Z,1.58
2022-08-07T14:07:09.432Z,1.80
2022-08-07T14:10:17.347Z,1.70
2022-08-07T14:12:41.606Z,1.60
2022-08-07T14:15:18.752Z,1.80
2022-08-07T14:18:15.936Z,1.92
2022-08-07T14:20:40.308Z,2.28
2022-08-07T14:23:18.042Z,2.05
2022-08-07T14:26:01.513Z,2.00
2022-08-07T14:28:33.184Z,1.67
2022-08-07T14:31:16.388Z,1.75
2022-08-07T14:33:45.060Z,2.10
2022-08-07T14:36:12.941Z,1.60
2022-08-07T14:38:42.678Z,1.60
2022-08-07T14:41:33.959Z,1.88
2022-08-07T14:44:15.722Z,1.95
2022-08-07T14:49:59.402Z,1.63
2022-08-07T14:52:21.501Z,1.92
2022-08-07T14:54:54.649Z,2.03
2022-08-07T14:57:24.493Z,1.73
2022-08-07T15:02:39.111Z,1.70
2022-08-07T15:05:20.626Z,1.70
2022-08-07T15:07:51.944Z,1.73
2022-08-07T15:13:05.807Z,1.75
2022-08-07T15:13:22.354Z,1.70
2022-08-07T15:15:56.963Z,1.83
2022-08-07T15:18:34.756Z,1.60
2022-08-07T15:26:46.980Z,1.80
2022-08-07T15:30:09.145Z,1.80
2022-08-07T15:34:57.197Z,1.63
2022-08-07T15:37:29.409Z,2.00
2022-08-07T15:43:33.249Z,1.95
2022-08-07T15:49:12.598Z,1.80
2022-08-07T15:54:27.387Z,1.75
2022-08-07T15:56:56.965Z,1.80
2022-08-07T15:59:38.935Z,1.85
2022-08-07T16:02:08.580Z,2.35
2022-08-07T16:04:37.505Z,2.20
2022-08-07T16:08:28.921Z,2.10
2022-08-07T16:09:57.893Z,2.20
2022-08-07T16:12:40.664Z,2.15
2022-08-07T16:15:57.644Z,2.28
2022-08-07T16:18:49.603Z,2.00
2022-08-07T16:22:05.019Z,2.10
2022-08-07T16:24:52.712Z,2.28
2022-08-07T16:27:38.996Z,2.05
2022-08-07T16:30:30.198Z,1.92
2022-08-07T16:34:01.626Z,2.20
2022-08-07T16:36:20.686Z,2.22
2022-08-07T16:39:05.907Z,2.40
2022-08-07T16:42:06.990Z,2.00
2022-08-07T16:45:14.060Z,2.33
2022-08-07T16:47:55.718Z,2.15
2022-08-07T16:51:13.445Z,2.30
2022-08-07T16:54:01.109Z,2.35
2022-08-07T16:56:37.425Z,2.33
2022-08-07T16:59:46.796Z,2.28
2022-08-07T17:02:53.904Z,2.15
2022-08-07T17:06:02.310Z,2.30
2022-08-07T17:09:09.093Z,2.25
2022-08-07T17:12:01.437Z,2.35
2022-08-07T17:14:42.607Z,2.20
2022-08-07T17:17:19.378Z,2.83
2022-08-07T17:20:02.055Z,2.90
2022-08-07T17:23:00.286Z,2.53
2022-08-07T17:25:51.218Z,2.45
2022-08-07T17:28:25.157Z,2.70
2022-08-07T17:31:16.175Z,2.55
2022-08-07T17:34:17.938Z,2.53
2022-08-07T17:36:58.120Z,2.50
2022-08-07T17:39:58.943Z,2.50
2022-08-07T17:42:58.131Z,2.53
2022-08-07T17:45:51.197Z,2.60
2022-08-07T17:48:31.197Z,3.70
2022-08-07T17:51:23.255Z,2.80
2022-08-07T17:54:13.108Z,2.95
2022-08-07T17:57:02.794Z,2.85
2022-08-07T17:59:50.592Z,2.75
2022-08-07T18:02:36.390Z,2.92
2022-08-07T18:05:20.700Z,2.85
2022-08-07T18:07:58.322Z,2.85
2022-08-07T18:12:06.697Z,2.85
2022-08-07T18:13:48.327Z,2.80
2022-08-07T18:16:32.845Z,3.00
2022-08-07T18:21:10.555Z,2.70
2022-08-07T18:22:11.496Z,3.00
2022-08-07T18:24:53.964Z,3.13
2022-08-07T18:27:57.565Z,3.40
2022-08-07T18:30:36.731Z,2.90
2022-08-07T18:33:54.947Z,2.90
2022-08-07T18:37:09.315Z,2.80
2022-08-07T18:40:18.528Z,2.58
2022-08-07T18:43:06.455Z,3.30
2022-08-07T18:46:25.979Z,3.13
2022-08-07T18:50:30.355Z,3.17
2022-08-07T18:52:40.952Z,3.33
2022-08-07T18:55:57.325Z,2.83
2022-08-07T18:58:38.243Z,3.33
2022-08-07T19:02:34.609Z,3.30
2022-08-07T19:04:06.515Z,3.00
2022-08-07T19:06:41.294Z,3.33
2022-08-07T19:09:57.159Z,3.30
2022-08-07T19:12:30.040Z,3.55
2022-08-07T19:16:04.877Z,3.50
2022-08-07T19:18:45.056Z,3.50
2022-08-07T19:21:47.639Z,3.47
2022-08-07T19:24:33.672Z,3.50
2022-08-07T19:28:29.121Z,3.30
2022-08-07T19:30:58.758Z,3.97
2022-08-07T19:32:50.947Z,3.60
2022-08-07T19:35:25.220Z,3.45
2022-08-07T19:37:57.759Z,3.70
2022-08-07T19:40:31.696Z,3.70
2022-08-07T19:43:07.638Z,3.70
2022-08-07T19:46:08.364Z,4.03
2022-08-07T19:48:53.887Z,3.70
2022-08-07T19:51:24.199Z,3.53
2022-08-07T19:54:33.179Z,4.43
2022-08-07T19:58:01.572Z,3.65
2022-08-07T19:59:49.709Z,3.95
2022-08-07T20:02:27.350Z,4.85
2022-08-07T20:04:56.029Z,4.20
2022-08-07T20:07:47.455Z,4.47
2022-08-07T20:13:01.871Z,4.35
2022-08-07T20:15:37.108Z,3.80
2022-08-07T20:18:06.243Z,3.95
2022-08-07T20:20:41.706Z,3.60
2022-08-07T20:23:23.283Z,4.28
2022-08-07T20:26:04.419Z,4.60
2022-08-07T20:28:38.517Z,4.78
2022-08-07T20:31:21.038Z,4.60
2022-08-07T20:33:56.722Z,4.53
2022-08-07T20:36:26.159Z,4.55
2022-08-07T20:39:00.612Z,4.80
2022-08-07T20:41:34.152Z,4.40
2022-08-07T20:44:05.061Z,4.35
2022-08-07T20:46:43.799Z,5.15
2022-08-07T20:50:01.087Z,4.50
2022-08-07T20:51:59.998Z,4.40
2022-08-07T20:54:29.687Z,4.30
2022-08-07T20:57:03.773Z,4.65
2022-08-07T21:00:06.636Z,3.75
2022-08-07T21:02:39.977Z,4.38
2022-08-07T21:05:16.666Z,4.35
2022-08-07T21:07:43.540Z,4.20
2022-08-07T21:10:25.101Z,4.80
2022-08-07T21:12:58.328Z,4.22
2022-08-07T21:15:47.558Z,4.93
2022-08-07T21:18:20.435Z,4.80
2022-08-07T21:21:00.487Z,4.20
2022-08-07T21:23:50.988Z,4.68
2022-08-07T21:26:39.613Z,4.70
2022-08-07T21:29:18.621Z,4.68
2022-08-07T21:32:43.541Z,4.43
2022-08-07T21:34:48.576Z,4.78
2022-08-07T21:37:23.234Z,4.75
2022-08-07T21:39:56.493Z,4.13
2022-08-07T21:42:42.675Z,4.50
2022-08-07T21:46:07.512Z,4.95
2022-08-07T21:48:42.544Z,4.30
2022-08-07T21:51:25.205Z,4.35
2022-08-07T21:53:55.149Z,4.30
2022-08-07T21:56:39.570Z,4.63
2022-08-07T22:00:04.486Z,4.15
2022-08-07T22:02:41.705Z,4.72
2022-08-07T22:05:21.713Z,4.57
2022-08-07T22:08:00.664Z,4.70
2022-08-07T22:10:33.648Z,4.65
2022-08-07T22:13:05.849Z,4.40
2022-08-07T22:16:42.409Z,4.60
2022-08-07T22:18:35.916Z,4.35
2022-08-07T22:21:11.634Z,5.18
2022-08-07T22:23:53.051Z,4.30
2022-08-07T22:26:44.279Z,4.05
2022-08-07T22:29:38.098Z,4.40
2022-08-07T22:32:38.047Z,4.72
2022-08-07T22:35:11.072Z,5.05
2022-08-07T22:38:04.325Z,4.93
2022-08-07T22:40:54.914Z,4.80
2022-08-07T22:43:33.982Z,5.00
2022-08-07T22:46:21.241Z,5.00
2022-08-07T22:49:02.272Z,4.70
2022-08-07T22:51:52.259Z,4.80
2022-08-07T22:54:37.321Z,4.88
2022-08-07T22:57:45.708Z,5.45
2022-08-07T23:00:28.594Z,5.53
2022-08-07T23:02:57.425Z,4.82
2022-08-07T23:06:08.980Z,5.35
2022-08-07T23:10:04.947Z,5.22
2022-08-07T23:12:20.964Z,5.53
2022-08-07T23:16:05.364Z,4.97
2022-08-07T23:18:42.387Z,4.68
2022-08-07T23:21:09.508Z,5.35
2022-08-07T23:24:06.554Z,5.13
2022-08-07T23:26:55.040Z,5.28
2022-08-07T23:30:39.253Z,5.28
2022-08-07T23:34:20.742Z,5.70
2022-08-07T23:36:10.604Z,5.38
2022-08-07T23:39:08.718Z,5.50
2022-08-07T23:42:04.618Z,5.88
2022-08-07T23:45:15.397Z,6.10
2022-08-07T23:48:01.962Z,6.22
2022-08-07T23:51:02.323Z,5.90
2022-08-07T23:53:49.575Z,6.03
2022-08-07T23:56:37.957Z,6.13
